Terminal Aerodrome Forecast
Issued by NWS

Home | Current Version | Previous Version | Text Only | Print | Product List | Glossary On
Versions: 1 2 3 4 5 6 7 8 9 10 11 12 13 14 15 16 17 18 19 20 21 22 23 24 25 26 27 28 29 30 31 32
000
FTUS44 KFWD 290727 AAB
TAFDAL
TAF AMD
KDAL 290727Z 2907/3006 14015G25KT P6SM SCT025 BKN050
     FM290745 26020G40KT 3SM -TSRA BKN025 OVC045CB
      TEMPO 2908/2909 26030G50KT 1SM TSRA
     FM291000 21016KT 5SM -RA VCTS BKN025 OVC050CB
     FM291100 16013KT 6SM BR VCSH BKN050
     FM291500 19013KT P6SM SCT080 BKN300
     FM300300 32016KT P6SM BKN080=

USA.gov is the U.S. government's official web portal to all federal, state and local government web resources and services.